Time;durP1;ratioP1;P1;durP2;ratioP2;P2;SDS_P1;SDS_P2;PMS_P1;PMS_P2;Temp;Humidity;BMP_temperature;BMP_pressure;BME280_temperature;BME280_humidity;BME280_pressure;Samples;Min_cycle;Max_cycle;Signal;HPM_P1;HPM_P2
2023/01/12 00:01:47;;;;;;;1.63;1.17;;;16.90;49.60;;;;;;5014763;28;20291;-78
2023/01/12 00:04:14;;;;;;;1.33;1.23;;;16.90;49.70;;;;;;5014535;28;20201;-78
2023/01/12 00:06:42;;;;;;;1.70;1.38;;;16.90;49.80;;;;;;5032075;28;20267;-78
2023/01/12 00:09:09;;;;;;;1.13;1.02;;;16.90;49.70;;;;;;5015388;28;20193;-78
2023/01/12 00:11:37;;;;;;;1.75;1.20;;;16.90;49.70;;;;;;5014979;28;20228;-78
2023/01/12 00:14:04;;;;;;;2.03;1.10;;;16.90;49.70;;;;;;5013335;28;20201;-78
2023/01/12 00:16:37;;;;;;;1.55;1.20;;;16.80;49.70;;;;;;5014983;28;20189;-78
2023/01/12 00:19:09;;;;;;;2.50;1.30;;;16.80;49.70;;;;;;5014469;28;20189;-78
2023/01/12 00:21:48;;;;;;;1.73;1.30;;;16.80;49.80;;;;;;5013756;28;20212;-78
2023/01/12 00:24:18;;;;;;;1.45;1.25;;;16.80;49.80;;;;;;5030694;28;20196;-78
2023/01/12 00:26:46;;;;;;;1.17;1.10;;;16.80;49.80;;;;;;5029751;28;20244;-78
2023/01/12 00:29:12;;;;;;;2.03;1.23;;;16.70;49.70;;;;;;5029868;28;20208;-78
2023/01/12 00:31:40;;;;;;;2.47;1.38;;;16.70;49.90;;;;;;5014092;28;20259;-78
2023/01/12 00:34:07;;;;;;;1.98;1.20;;;16.70;49.70;;;;;;4996916;28;20197;-78
2023/01/12 00:36:34;;;;;;;3.10;1.20;;;16.70;49.70;;;;;;5013297;28;20193;-78
2023/01/12 00:39:01;;;;;;;1.25;1.10;;;16.70;49.70;;;;;;5013189;28;20565;-78
2023/01/12 00:46:58;;;;;;;1.50;1.40;;;16.60;49.70;;;;;;5016343;28;20209;-78
2023/01/12 00:49:25;;;;;;;1.27;1.17;;;16.60;49.70;;;;;;5017013;28;20690;-78
2023/01/12 00:51:52;;;;;;;2.03;1.27;;;16.60;49.70;;;;;;5017224;28;20208;-78
2023/01/12 00:54:19;;;;;;;1.45;1.20;;;16.60;49.70;;;;;;5033396;28;20223;-78
2023/01/12 00:56:48;;;;;;;1.20;0.98;;;16.60;49.80;;;;;;5000502;28;20566;-78
2023/01/12 00:59:15;;;;;;;1.20;1.02;;;16.60;49.80;;;;;;5017114;28;20201;-78
2023/01/12 01:01:42;;;;;;;2.05;1.27;;;16.60;49.90;;;;;;5016781;28;20200;-78
2023/01/12 01:04:09;;;;;;;1.77;1.10;;;16.60;49.90;;;;;;5016552;28;20204;-78
2023/01/12 01:06:37;;;;;;;1.13;1.02;;;16.60;49.90;;;;;;5016795;28;20216;-78
2023/01/12 01:09:04;;;;;;;1.50;1.40;;;16.60;50.10;;;;;;5016848;28;20224;-78
2023/01/12 01:11:31;;;;;;;1.65;1.10;;;16.60;49.90;;;;;;5033039;28;20291;-78
2023/01/12 01:14:00;;;;;;;2.80;1.20;;;16.50;49.90;;;;;;5016562;28;20205;-78
2023/01/12 01:16:28;;;;;;;2.17;1.33;;;16.50;49.90;;;;;;5016354;28;20201;-78
2023/01/12 01:18:55;;;;;;;1.15;1.10;;;16.50;50.10;;;;;;5016952;28;20203;-78
2023/01/12 01:21:22;;;;;;;2.25;1.10;;;16.50;50.00;;;;;;5016329;28;20610;-78
2023/01/12 01:23:49;;;;;;;1.38;1.00;;;16.40;50.10;;;;;;5033190;28;20583;-78
2023/01/12 01:26:17;;;;;;;1.98;1.17;;;16.50;50.20;;;;;;5016331;28;20645;-78
2023/01/12 01:28:45;;;;;;;1.00;1.00;;;16.50;50.20;;;;;;5017911;28;20193;-78
2023/01/12 01:31:14;;;;;;;1.27;0.95;;;16.50;50.30;;;;;;5033087;28;20222;-78
2023/01/12 01:33:41;;;;;;;1.45;1.00;;;16.50;51.00;;;;;;5017470;28;20660;-78
2023/01/12 01:36:08;;;;;;;1.80;1.17;;;16.50;50.40;;;;;;5017466;28;20216;-78
2023/01/12 01:38:34;;;;;;;1.20;1.10;;;16.50;50.40;;;;;;5018070;28;20569;-78
2023/01/12 01:41:01;;;;;;;1.27;1.00;;;16.50;50.90;;;;;;5016462;28;20200;-78
2023/01/12 01:43:29;;;;;;;1.52;1.17;;;16.40;50.20;;;;;;5016534;28;20284;-78
2023/01/12 01:45:59;;;;;;;2.08;1.10;;;16.40;50.30;;;;;;5032841;28;20220;-78
2023/01/12 01:48:28;;;;;;;2.42;1.13;;;16.40;50.30;;;;;;5015844;28;20220;-78
2023/01/12 01:50:57;;;;;;;2.42;1.13;;;16.40;50.20;;;;;;5033247;28;20612;-78
2023/01/12 01:53:25;;;;;;;2.25;1.05;;;16.40;50.30;;;;;;5032805;28;20201;-78
2023/01/12 01:55:54;;;;;;;2.22;1.20;;;16.40;50.20;;;;;;5016591;28;20221;-78
2023/01/12 01:58:23;;;;;;;1.25;1.05;;;16.40;50.30;;;;;;5015697;28;20196;-78
2023/01/12 02:00:51;;;;;;;2.42;1.30;;;16.40;50.30;;;;;;5016248;28;20354;-78
2023/01/12 02:03:17;;;;;;;1.42;1.10;;;16.40;50.40;;;;;;5015803;28;20205;-78
2023/01/12 02:05:50;;;;;;;2.70;1.38;;;16.40;50.40;;;;;;5032144;28;20217;-80
2023/01/12 02:08:21;;;;;;;1.30;1.10;;;16.30;50.40;;;;;;5015596;28;20217;-78
2023/01/12 02:10:48;;;;;;;2.30;1.30;;;16.30;50.60;;;;;;5015986;28;20599;-78
2023/01/12 02:16:21;;;;;;;1.80;1.17;;;16.30;50.70;;;;;;5015972;28;20266;-78
2023/01/12 02:18:53;;;;;;;1.05;0.95;;;16.30;50.60;;;;;;5016529;28;20577;-79
2023/01/12 02:21:41;;;;;;;1.13;1.00;;;16.30;50.80;;;;;;5032376;28;20200;-78
2023/01/12 02:24:25;;;;;;;3.42;1.15;;;16.30;50.80;;;;;;5015966;28;20188;-78
2023/01/12 02:27:17;;;;;;;2.25;1.10;;;16.30;50.70;;;;;;5016418;28;20217;-78
2023/01/12 02:30:18;;;;;;;1.85;1.10;;;16.30;50.80;;;;;;5015850;28;20193;-78
2023/01/12 02:32:49;;;;;;;1.45;1.00;;;16.30;50.80;;;;;;5015737;28;20184;-78
2023/01/12 02:35:20;;;;;;;1.42;1.10;;;16.30;50.70;;;;;;5032341;28;20762;-78
2023/01/12 02:37:49;;;;;;;1.77;1.13;;;16.30;50.80;;;;;;4999380;28;20197;-78
2023/01/12 02:40:19;;;;;;;1.85;0.90;;;16.30;50.80;;;;;;5032504;28;20216;-78
2023/01/12 02:42:53;;;;;;;1.65;1.10;;;16.30;50.90;;;;;;5016356;28;20370;-78
2023/01/12 02:45:25;;;;;;;1.27;1.05;;;16.30;50.80;;;;;;5016700;28;20216;-78
2023/01/12 02:47:56;;;;;;;1.52;1.10;;;16.20;50.80;;;;;;5015100;28;20219;-78
2023/01/12 02:50:27;;;;;;;1.65;1.13;;;16.30;50.80;;;;;;5016084;28;20193;-78
2023/01/12 02:52:56;;;;;;;1.30;0.98;;;16.20;50.70;;;;;;4999397;28;20197;-78
2023/01/12 02:55:23;;;;;;;1.13;1.02;;;16.30;50.80;;;;;;4998997;28;20221;-78
2023/01/12 02:57:53;;;;;;;0.93;0.93;;;16.20;50.70;;;;;;5015728;28;20193;-78
2023/01/12 03:00:20;;;;;;;1.55;0.98;;;16.30;50.80;;;;;;5015309;28;20207;-78
2023/01/12 03:02:47;;;;;;;2.03;1.08;;;16.20;50.70;;;;;;5014722;28;20266;-78
2023/01/12 03:05:16;;;;;;;1.58;1.02;;;16.20;50.80;;;;;;5014470;28;20224;-78
2023/01/12 03:07:48;;;;;;;3.65;1.08;;;16.20;50.60;;;;;;5015713;28;20220;-78
2023/01/12 03:10:36;;;;;;;1.77;1.17;;;16.20;50.70;;;;;;5014370;28;20204;-78
2023/01/12 03:13:06;;;;;;;1.02;0.95;;;16.20;50.70;;;;;;5014739;28;20197;-78
2023/01/12 03:15:33;;;;;;;1.50;1.10;;;16.20;50.70;;;;;;5014507;28;20221;-78
2023/01/12 03:18:03;;;;;;;1.27;1.00;;;16.20;50.80;;;;;;5014265;28;20216;-78
2023/01/12 03:20:33;;;;;;;1.05;0.95;;;16.20;50.80;;;;;;5030889;28;20223;-78
2023/01/12 03:23:01;;;;;;;1.30;1.00;;;16.20;50.70;;;;;;5014383;28;20200;-78
2023/01/12 03:25:28;;;;;;;2.85;1.10;;;16.20;50.80;;;;;;5015935;28;20304;-77
2023/01/12 03:27:56;;;;;;;1.35;0.98;;;16.20;50.90;;;;;;5030679;28;20213;-78
2023/01/12 03:30:24;;;;;;;2.17;1.20;;;16.10;50.80;;;;;;5014200;28;20204;-78
2023/01/12 03:32:51;;;;;;;1.52;0.98;;;16.10;50.80;;;;;;5030697;28;20656;-78
2023/01/12 03:35:18;;;;;;;1.23;0.90;;;16.20;50.80;;;;;;5014322;28;20636;-78
2023/01/12 03:37:49;;;;;;;2.03;1.00;;;16.10;50.70;;;;;;5014359;28;20348;-78
2023/01/12 03:40:18;;;;;;;1.95;0.90;;;16.10;50.70;;;;;;5014311;28;20200;-78
2023/01/12 03:42:48;;;;;;;1.40;0.90;;;16.10;50.70;;;;;;5014098;28;20550;-79
2023/01/12 03:45:22;;;;;;;1.05;0.90;;;16.20;50.80;;;;;;5014216;28;20287;-79
2023/01/12 03:47:51;;;;;;;1.08;1.00;;;16.10;50.80;;;;;;5014093;28;20584;-78
2023/01/12 03:50:18;;;;;;;1.85;1.10;;;16.10;50.90;;;;;;5014151;28;20211;-79
2023/01/12 03:52:47;;;;;;;1.42;1.00;;;16.10;50.80;;;;;;5030581;28;20291;-79
2023/01/12 03:55:16;;;;;;;1.20;1.00;;;16.10;50.80;;;;;;5014151;28;20217;-79
2023/01/12 03:57:43;;;;;;;1.13;1.00;;;16.10;50.90;;;;;;5014004;28;20570;-78
2023/01/12 04:00:11;;;;;;;2.05;1.00;;;16.10;50.80;;;;;;5013894;28;20197;-79
2023/01/12 04:02:42;;;;;;;1.40;0.95;;;16.10;50.80;;;;;;5013971;28;20217;-79
2023/01/12 04:05:09;;;;;;;2.78;1.20;;;16.10;50.80;;;;;;5013718;28;20590;-79
2023/01/12 04:07:37;;;;;;;1.20;0.90;;;16.10;50.80;;;;;;5014391;28;20213;-79
2023/01/12 04:10:06;;;;;;;1.00;0.77;;;16.10;50.90;;;;;;5014589;28;20197;-78
2023/01/12 04:12:33;;;;;;;1.58;1.05;;;16.10;51.00;;;;;;4997989;28;20267;-78
2023/01/12 04:15:00;;;;;;;1.98;1.23;;;16.00;51.00;;;;;;5013855;28;20224;-79
2023/01/12 04:17:28;;;;;;;2.53;1.10;;;16.00;51.40;;;;;;5014057;28;20197;-79
2023/01/12 04:19:55;;;;;;;2.45;1.10;;;16.00;51.40;;;;;;5013268;28;20212;-79
2023/01/12 04:25:08;;;;;;;1.13;1.00;;;16.00;51.70;;;;;;5016116;28;20220;-79
2023/01/12 04:27:36;;;;;;;3.05;1.10;;;15.90;51.70;;;;;;5011256;28;20200;-79
2023/01/12 04:30:03;;;;;;;1.80;0.85;;;16.00;51.60;;;;;;5037910;28;20208;-79
2023/01/12 04:32:30;;;;;;;1.52;0.90;;;16.00;51.70;;;;;;5018878;28;20235;-79
2023/01/12 04:34:57;;;;;;;1.70;1.08;;;16.00;51.70;;;;;;5015365;28;20271;-79
2023/01/12 04:37:24;;;;;;;2.20;0.98;;;16.00;51.50;;;;;;5014793;28;20625;-79
2023/01/12 04:39:52;;;;;;;2.13;1.10;;;16.00;51.40;;;;;;5014119;28;20211;-79
2023/01/12 04:45:06;;;;;;;0.88;0.85;;;16.10;51.50;;;;;;5013713;28;20220;-79
2023/01/12 04:47:33;;;;;;;1.70;1.00;;;16.10;51.70;;;;;;5013603;28;20216;-79
2023/01/12 04:50:00;;;;;;;1.40;1.00;;;16.10;51.50;;;;;;5030397;28;20787;-79
2023/01/12 04:52:27;;;;;;;1.80;1.13;;;16.20;51.50;;;;;;5013917;28;20205;-79
2023/01/12 04:54:55;;;;;;;1.10;1.00;;;16.20;51.60;;;;;;5013721;28;20216;-79
2023/01/12 04:57:24;;;;;;;1.30;1.00;;;16.20;51.50;;;;;;4997559;28;20204;-79
2023/01/12 04:59:51;;;;;;;1.33;1.00;;;16.20;51.50;;;;;;4997140;28;20687;-79
2023/01/12 05:02:17;;;;;;;1.13;1.02;;;16.20;51.50;;;;;;5013769;28;20209;-79
2023/01/12 05:04:46;;;;;;;2.05;1.10;;;16.30;51.60;;;;;;5014616;28;20235;-79
2023/01/12 05:07:13;;;;;;;1.65;1.00;;;16.20;51.50;;;;;;5030206;28;20287;-79
2023/01/12 05:12:26;;;;;;;1.60;1.00;;;16.20;51.50;;;;;;5014214;28;20189;-79
2023/01/12 05:14:53;;;;;;;1.73;1.23;;;16.30;51.60;;;;;;5013583;28;20714;-79
2023/01/12 05:17:21;;;;;;;2.20;1.13;;;16.30;51.50;;;;;;5030082;28;20205;-79
2023/01/12 05:19:48;;;;;;;1.45;1.20;;;16.30;51.50;;;;;;4997395;28;20664;-78
2023/01/12 05:22:15;;;;;;;1.85;1.15;;;16.30;51.20;;;;;;5014333;28;20189;-78
2023/01/12 05:24:42;;;;;;;2.42;1.10;;;16.30;51.10;;;;;;5031078;28;20217;-78
2023/01/12 05:27:09;;;;;;;2.45;1.20;;;16.30;51.20;;;;;;5013665;28;20227;-78
2023/01/12 05:29:38;;;;;;;1.25;1.00;;;16.40;51.10;;;;;;5013392;28;20312;-77
2023/01/12 05:32:05;;;;;;;1.35;1.10;;;16.40;51.00;;;;;;5014824;28;20656;-78
2023/01/12 05:34:32;;;;;;;1.52;1.20;;;16.40;51.50;;;;;;5016598;28;20220;-78
2023/01/12 05:37:00;;;;;;;1.90;1.40;;;16.40;51.20;;;;;;5032982;28;20201;-78
2023/01/12 05:39:27;;;;;;;2.33;1.33;;;16.50;51.30;;;;;;5016711;28;20295;-78
2023/01/12 05:44:40;;;;;;;1.27;1.00;;;16.50;51.30;;;;;;5016328;28;20227;-78
2023/01/12 05:47:08;;;;;;;2.30;1.10;;;16.50;51.40;;;;;;5032607;28;20632;-78
2023/01/12 05:49:34;;;;;;;1.50;1.17;;;16.60;51.00;;;;;;5032291;28;20221;-78
2023/01/12 05:52:02;;;;;;;2.92;1.05;;;16.60;51.00;;;;;;5015842;28;20208;-78
2023/01/12 05:54:30;;;;;;;1.85;1.20;;;16.60;50.80;;;;;;5015753;28;20251;-78
2023/01/12 05:56:57;;;;;;;1.63;1.10;;;16.60;51.20;;;;;;5016273;28;20212;-77
2023/01/12 05:59:24;;;;;;;1.25;0.90;;;16.60;51.00;;;;;;5016227;28;20196;-81
2023/01/12 06:01:53;;;;;;;1.10;0.93;;;16.70;50.90;;;;;;5016485;28;20208;-77
2023/01/12 06:04:20;;;;;;;2.38;1.25;;;16.80;50.70;;;;;;5032357;28;20200;-75
2023/01/12 06:06:47;;;;;;;1.92;1.20;;;16.80;50.80;;;;;;5016226;28;20201;-74
2023/01/12 06:09:14;;;;;;;2.03;1.20;;;16.80;50.40;;;;;;5015835;28;20223;-73
2023/01/12 06:14:25;;;;;;;3.78;1.35;;;16.90;50.40;;;;;;5015378;28;20224;-75
2023/01/12 06:16:54;;;;;;;3.72;1.20;;;16.80;50.50;;;;;;5015341;28;20204;-75
2023/01/12 06:19:20;;;;;;;3.47;1.50;;;16.90;50.80;;;;;;5015617;28;20208;-76
2023/01/12 06:21:47;;;;;;;3.08;1.38;;;16.90;51.00;;;;;;5015296;28;20200;-74
2023/01/12 06:24:14;;;;;;;2.17;1.23;;;16.90;51.00;;;;;;5015171;28;20200;-74
2023/01/12 06:26:44;;;;;;;2.90;1.30;;;16.90;51.10;;;;;;5015040;28;20256;-74
2023/01/12 06:29:12;;;;;;;2.22;1.08;;;16.90;51.20;;;;;;5015483;28;20235;-74
2023/01/12 06:31:39;;;;;;;2.58;1.25;;;16.90;51.30;;;;;;5015385;28;20307;-74
2023/01/12 06:34:08;;;;;;;1.85;1.02;;;17.00;51.40;;;;;;5014698;28;20635;-74
2023/01/12 06:36:35;;;;;;;3.90;1.27;;;17.00;51.20;;;;;;5015233;28;20200;-74
2023/01/12 06:39:02;;;;;;;2.17;1.25;;;17.00;51.00;;;;;;5016496;28;20193;-75
2023/01/12 06:44:14;;;;;;;2.78;1.20;;;17.00;50.80;;;;;;5014524;28;20185;-74
2023/01/12 06:46:41;;;;;;;1.60;1.20;;;17.10;50.70;;;;;;5014589;28;20663;-74
2023/01/12 06:49:10;;;;;;;2.55;1.20;;;17.10;51.20;;;;;;5031063;28;20220;-74
2023/01/12 06:51:37;;;;;;;2.28;1.38;;;17.10;51.10;;;;;;5014533;28;20201;-74
2023/01/12 06:54:03;;;;;;;2.25;1.20;;;17.10;50.60;;;;;;5014560;28;20201;-74
2023/01/12 06:56:31;;;;;;;1.95;1.00;;;17.10;50.90;;;;;;5014432;28;20208;-73
2023/01/12 06:58:58;;;;;;;2.50;1.00;;;17.10;51.00;;;;;;4998282;28;20201;-74
2023/01/12 07:01:26;;;;;;;1.48;1.02;;;17.10;50.80;;;;;;5014443;28;20200;-75
2023/01/12 07:03:53;;;;;;;2.15;1.15;;;17.10;50.80;;;;;;5014608;28;20196;-74
2023/01/12 07:06:21;;;;;;;3.53;1.30;;;17.10;51.00;;;;;;5015143;28;20220;-74
2023/01/12 07:08:49;;;;;;;1.38;1.08;;;17.20;51.20;;;;;;5014150;28;20224;-74
2023/01/12 07:11:16;;;;;;;1.77;1.10;;;17.20;50.90;;;;;;5014732;28;20204;-74
2023/01/12 07:13:43;;;;;;;1.38;1.00;;;17.20;50.90;;;;;;5014096;28;20292;-74
2023/01/12 07:16:10;;;;;;;2.17;1.10;;;17.20;50.90;;;;;;5014167;28;20312;-74
2023/01/12 07:18:37;;;;;;;1.50;1.00;;;17.20;50.60;;;;;;5014007;28;20196;-74
2023/01/12 07:21:05;;;;;;;3.10;1.35;;;17.30;50.40;;;;;;5013966;28;20223;-76
2023/01/12 07:23:34;;;;;;;2.05;1.10;;;17.30;50.30;;;;;;5002186;28;20208;-76
2023/01/12 07:26:01;;;;;;;2.08;1.30;;;17.30;50.20;;;;;;5013973;28;20228;-77
2023/01/12 07:28:30;;;;;;;3.20;1.20;;;17.40;50.20;;;;;;5013918;28;20221;-77
2023/01/12 07:31:00;;;;;;;1.85;1.13;;;17.30;49.80;;;;;;5014914;28;20347;-77
2023/01/12 07:33:27;;;;;;;3.05;1.30;;;17.40;49.60;;;;;;5013795;28;20201;-77
2023/01/12 07:35:57;;;;;;;1.55;1.17;;;17.40;49.60;;;;;;5014014;28;20654;-77
2023/01/12 07:38:24;;;;;;;1.80;1.17;;;17.50;49.90;;;;;;5030243;28;20216;-77
2023/01/12 07:40:53;;;;;;;3.40;1.30;;;17.50;49.20;;;;;;5014415;28;20207;-77
2023/01/12 07:43:20;;;;;;;2.28;1.10;;;17.60;49.10;;;;;;5015856;28;20188;-77
2023/01/12 07:45:48;;;;;;;1.20;1.05;;;17.60;49.00;;;;;;5030329;28;20307;-77
2023/01/12 07:48:15;;;;;;;1.85;1.20;;;17.60;49.10;;;;;;5030160;28;20207;-77
2023/01/12 07:50:42;;;;;;;3.45;1.20;;;17.60;48.80;;;;;;5014389;28;20550;-77
2023/01/12 07:53:09;;;;;;;2.15;1.23;;;17.60;48.90;;;;;;5015463;28;20232;-77
2023/01/12 07:55:38;;;;;;;2.15;1.00;;;17.60;48.60;;;;;;5014606;28;20224;-77
2023/01/12 07:58:07;;;;;;;1.60;1.27;;;17.60;49.00;;;;;;4998483;28;20255;-77
2023/01/12 08:00:34;;;;;;;2.80;1.35;;;17.70;49.00;;;;;;5016137;28;20197;-77
2023/01/12 08:03:04;;;;;;;2.33;0.90;;;17.70;48.80;;;;;;5015271;28;20201;-77
2023/01/12 08:05:31;;;;;;;2.42;1.30;;;17.70;48.50;;;;;;5018703;28;20220;-77
2023/01/12 08:08:00;;;;;;;1.50;1.00;;;17.70;48.40;;;;;;5042780;28;20197;-77
2023/01/12 08:10:27;;;;;;;1.33;1.00;;;17.70;48.40;;;;;;5022745;28;20204;-77
2023/01/12 08:12:53;;;;;;;2.83;1.33;;;17.80;48.40;;;;;;5017640;28;20205;-77
2023/01/12 08:15:22;;;;;;;1.58;1.10;;;17.80;48.50;;;;;;5015371;28;20311;-77
2023/01/12 08:17:51;;;;;;;2.10;1.13;;;17.80;48.50;;;;;;5030945;28;20210;-77
2023/01/12 08:20:21;;;;;;;2.40;1.15;;;17.80;48.30;;;;;;5014165;28;20747;-77
2023/01/12 08:22:50;;;;;;;2.50;1.40;;;17.70;48.40;;;;;;5014175;28;20235;-77
2023/01/12 08:25:18;;;;;;;2.03;1.15;;;17.80;48.10;;;;;;5013871;28;20216;-77
2023/01/12 08:27:49;;;;;;;3.08;1.10;;;17.80;48.50;;;;;;5013349;28;20232;-77
2023/01/12 08:30:16;;;;;;;1.70;1.10;;;17.80;48.50;;;;;;5013556;28;20217;-77
2023/01/12 08:32:45;;;;;;;2.13;1.10;;;17.80;48.20;;;;;;5013850;28;20211;-77
2023/01/12 08:35:12;;;;;;;1.63;1.02;;;17.80;48.30;;;;;;5013411;28;20225;-77
2023/01/12 08:37:39;;;;;;;2.35;1.00;;;17.80;48.50;;;;;;5013469;28;20205;-77
2023/01/12 08:40:07;;;;;;;1.45;1.13;;;17.90;48.60;;;;;;5013137;28;20283;-77
2023/01/12 08:42:34;;;;;;;3.05;1.27;;;17.90;48.40;;;;;;5014698;28;20208;-77
2023/01/12 08:45:02;;;;;;;3.05;1.00;;;17.90;48.20;;;;;;5013296;28;20240;-77
2023/01/12 08:47:29;;;;;;;3.00;1.40;;;17.90;48.20;;;;;;5013355;28;20228;-77
2023/01/12 08:49:58;;;;;;;2.88;1.15;;;17.90;48.20;;;;;;5014049;28;20633;-77
2023/01/12 08:52:28;;;;;;;1.45;1.00;;;17.90;48.10;;;;;;5013407;28;20718;-77
2023/01/12 08:54:55;;;;;;;1.85;1.10;;;17.90;48.00;;;;;;5030229;28;20691;-77
2023/01/12 08:57:22;;;;;;;2.55;1.08;;;17.90;48.20;;;;;;5029984;28;20640;-77
2023/01/12 08:59:49;;;;;;;2.95;1.20;;;17.90;48.30;;;;;;5013373;28;20193;-77
2023/01/12 09:02:16;;;;;;;1.77;1.00;;;17.90;47.90;;;;;;4997028;28;20203;-77
2023/01/12 09:04:43;;;;;;;2.13;1.20;;;17.90;48.00;;;;;;5030162;28;20283;-77
2023/01/12 09:07:12;;;;;;;2.20;1.13;;;18.00;48.70;;;;;;5015359;28;20679;-77
2023/01/12 09:09:39;;;;;;;1.75;1.00;;;18.00;48.00;;;;;;5019480;28;20278;-77
2023/01/12 09:12:06;;;;;;;1.52;1.00;;;17.90;48.70;;;;;;5018454;28;20207;-77
2023/01/12 09:14:37;;;;;;;1.90;1.10;;;17.90;48.20;;;;;;5018268;28;20311;-77
2023/01/12 09:17:04;;;;;;;1.60;1.10;;;18.00;48.00;;;;;;5018400;28;20636;-77
2023/01/12 09:19:31;;;;;;;3.53;1.20;;;18.00;48.00;;;;;;5034213;28;20239;-77
2023/01/12 09:21:58;;;;;;;2.78;1.27;;;18.00;48.00;;;;;;5018270;28;20181;-77
2023/01/12 09:24:27;;;;;;;2.40;1.10;;;18.00;47.80;;;;;;5017441;28;20240;-77
2023/01/12 09:26:54;;;;;;;2.58;0.95;;;18.10;47.90;;;;;;5017381;28;20296;-77
2023/01/12 09:29:21;;;;;;;1.90;1.05;;;18.10;47.90;;;;;;5016850;28;20228;-77
2023/01/12 09:31:48;;;;;;;3.20;1.42;;;18.10;47.90;;;;;;5033603;28;20205;-77
2023/01/12 09:34:15;;;;;;;1.95;1.02;;;18.10;48.00;;;;;;5017036;28;20208;-77
2023/01/12 09:36:43;;;;;;;2.67;1.23;;;18.10;48.00;;;;;;5016622;28;20203;-77
2023/01/12 09:39:12;;;;;;;2.72;1.50;;;18.10;47.80;;;;;;5016638;28;20247;-77
2023/01/12 09:47:16;;;;;;;2.03;1.20;;;18.20;47.90;;;;;;5017833;28;20185;-77
2023/01/12 09:49:46;;;;;;;2.33;1.20;;;18.20;47.80;;;;;;5016668;28;20212;-77
2023/01/12 09:52:14;;;;;;;2.58;1.20;;;18.10;48.10;;;;;;5016566;28;20201;-77
2023/01/12 09:54:42;;;;;;;2.30;1.13;;;18.20;48.10;;;;;;5017103;28;20240;-77
2023/01/12 09:57:19;;;;;;;1.67;1.20;;;18.20;48.10;;;;;;5016481;28;20227;-77
2023/01/12 09:59:51;;;;;;;1.90;1.10;;;18.20;47.90;;;;;;5033184;28;20208;-77
2023/01/12 10:02:18;;;;;;;2.50;0.98;;;18.20;47.80;;;;;;5033535;28;20201;-77
2023/01/12 10:04:46;;;;;;;1.83;1.10;;;18.20;47.70;;;;;;5016462;28;20256;-77
2023/01/12 10:07:14;;;;;;;2.22;1.00;;;18.30;48.10;;;;;;5033330;28;20200;-77
2023/01/12 10:09:42;;;;;;;1.80;1.10;;;18.30;48.00;;;;;;5016778;28;20224;-77
2023/01/12 10:12:16;;;;;;;1.60;0.95;;;18.20;47.70;;;;;;5017100;28;20228;-77
2023/01/12 10:15:05;;;;;;;4.07;1.40;;;18.30;47.80;;;;;;5017852;28;20541;-77
2023/01/12 10:17:37;;;;;;;2.88;1.35;;;18.30;47.90;;;;;;5032800;28;20216;-77
2023/01/12 10:20:12;;;;;;;1.90;1.23;;;18.30;47.80;;;;;;5017491;28;20200;-77
2023/01/12 10:22:41;;;;;;;3.33;1.20;;;18.30;48.20;;;;;;5018465;28;20280;-77
2023/01/12 10:25:16;;;;;;;2.28;1.15;;;18.30;47.90;;;;;;5001098;28;20315;-77
2023/01/12 10:27:47;;;;;;;1.65;1.10;;;18.30;47.70;;;;;;5017056;28;20560;-77
2023/01/12 10:30:16;;;;;;;2.45;1.00;;;18.30;48.10;;;;;;5033243;28;20227;-77
2023/01/12 10:32:43;;;;;;;1.95;1.30;;;18.30;47.80;;;;;;5032914;28;20220;-78
2023/01/12 10:35:15;;;;;;;1.60;1.08;;;18.30;47.70;;;;;;5000416;28;20223;-78
2023/01/12 10:37:46;;;;;;;2.58;1.30;;;18.30;47.70;;;;;;5016721;28;20271;-77
2023/01/12 10:40:31;;;;;;;2.55;1.30;;;18.40;47.60;;;;;;5016063;28;20644;-77
2023/01/12 10:43:32;;;;;;;2.05;1.10;;;18.40;47.70;;;;;;5000346;28;20199;-77
2023/01/12 10:46:04;;;;;;;1.45;1.00;;;18.50;47.70;;;;;;5017845;28;20239;-77
2023/01/12 10:48:31;;;;;;;1.60;1.20;;;18.50;47.60;;;;;;5016556;28;20254;-76
2023/01/12 10:50:59;;;;;;;2.00;1.00;;;18.50;47.60;;;;;;5016030;28;20235;-77
2023/01/12 10:53:35;;;;;;;1.13;1.02;;;18.50;47.40;;;;;;5032309;28;20208;-77
2023/01/12 10:56:12;;;;;;;2.05;1.30;;;18.50;47.40;;;;;;5000177;28;20227;-77
2023/01/12 10:58:40;;;;;;;2.60;1.35;;;18.50;47.40;;;;;;5016550;28;20247;-77
2023/01/12 11:01:07;;;;;;;1.50;1.00;;;18.50;47.60;;;;;;5015191;28;20656;-77
2023/01/12 11:03:36;;;;;;;1.67;1.20;;;18.60;47.50;;;;;;4999190;28;20259;-77
2023/01/12 11:06:26;;;;;;;1.48;0.98;;;18.60;47.30;;;;;;5015275;28;20223;-78
2023/01/12 11:08:53;;;;;;;1.13;0.95;;;18.60;47.30;;;;;;5031646;28;20197;-78
2023/01/12 11:11:27;;;;;;;1.60;1.05;;;18.50;47.70;;;;;;4998398;28;20224;-78
2023/01/12 11:13:57;;;;;;;1.30;1.00;;;18.50;47.40;;;;;;5031283;28;20197;-78
2023/01/12 11:16:25;;;;;;;1.77;1.10;;;18.50;47.70;;;;;;5030849;28;20217;-78
2023/01/12 11:19:08;;;;;;;1.65;1.08;;;18.50;48.10;;;;;;5031226;28;20304;-78
2023/01/12 11:21:38;;;;;;;1.38;1.00;;;18.60;47.80;;;;;;5014723;28;20237;-78
2023/01/12 11:24:05;;;;;;;2.17;1.20;;;18.60;47.90;;;;;;5015088;28;20655;-78
2023/01/12 11:26:35;;;;;;;1.70;1.10;;;18.60;47.70;;;;;;5015335;28;20204;-78
2023/01/12 11:29:22;;;;;;;1.20;1.00;;;18.60;47.80;;;;;;5014700;28;20204;-78
2023/01/12 11:31:50;;;;;;;1.45;1.10;;;18.70;47.60;;;;;;5031323;28;20193;-78
2023/01/12 11:34:18;;;;;;;1.10;0.90;;;18.70;47.60;;;;;;5014186;28;20208;-78
2023/01/12 11:36:46;;;;;;;1.13;0.80;;;18.70;47.50;;;;;;5014470;28;20197;-78
2023/01/12 11:39:15;;;;;;;2.13;1.05;;;18.70;47.40;;;;;;5013914;28;20193;-78
2023/01/12 11:43:47;;;;;;;1.45;0.82;;;18.60;47.50;;;;;;5014006;28;20193;-77
2023/01/12 11:44:35;;;;;;;0.80;0.80;;;18.60;47.50;;;;;;5013753;28;20216;-77
2023/01/12 11:47:05;;;;;;;1.35;0.90;;;18.50;47.40;;;;;;5014150;28;20200;-77
2023/01/12 11:49:38;;;;;;;0.85;0.80;;;18.50;47.70;;;;;;5013935;28;20197;-77
2023/01/12 11:52:07;;;;;;;1.58;0.98;;;18.50;47.90;;;;;;5014166;28;20592;-77
2023/01/12 11:54:36;;;;;;;0.98;0.90;;;18.50;48.00;;;;;;5013879;28;20216;-77
2023/01/12 11:57:24;;;;;;;1.55;0.98;;;18.50;47.90;;;;;;5013982;28;20208;-77
2023/01/12 12:00:00;;;;;;;1.83;1.02;;;18.60;47.90;;;;;;5013534;28;20320;-77
2023/01/12 12:02:33;;;;;;;2.05;1.00;;;18.60;48.00;;;;;;5029953;28;20563;-77
2023/01/12 12:05:04;;;;;;;1.77;0.85;;;18.50;47.90;;;;;;5030196;28;20227;-77
2023/01/12 12:07:38;;;;;;;1.08;0.98;;;18.60;47.70;;;;;;5014444;28;20248;-77
2023/01/12 12:10:21;;;;;;;1.38;0.90;;;18.60;47.70;;;;;;5030901;28;20201;-77
2023/01/12 12:13:04;;;;;;;1.35;0.90;;;18.60;48.10;;;;;;4997972;28;20624;-77
2023/01/12 12:15:34;;;;;;;1.63;0.90;;;18.60;47.60;;;;;;5013755;28;20216;-77
2023/01/12 12:18:06;;;;;;;1.00;0.90;;;18.60;47.50;;;;;;5014238;28;20596;-77
2023/01/12 12:20:36;;;;;;;1.10;0.85;;;18.60;47.70;;;;;;5013539;28;20200;-77
2023/01/12 12:23:11;;;;;;;1.88;0.95;;;18.60;47.60;;;;;;5013600;28;20655;-77
2023/01/12 12:25:41;;;;;;;0.90;0.80;;;18.60;47.40;;;;;;5013547;28;20212;-77
2023/01/12 12:28:18;;;;;;;1.05;0.80;;;18.70;47.50;;;;;;5013485;28;20632;-78
2023/01/12 12:30:54;;;;;;;1.25;0.85;;;18.70;47.60;;;;;;5013739;28;20238;-78
2023/01/12 12:33:37;;;;;;;1.35;1.00;;;18.70;47.60;;;;;;5014152;28;20196;-78
2023/01/12 12:36:15;;;;;;;1.17;0.95;;;18.70;47.60;;;;;;5014751;28;20225;-78
2023/01/12 12:39:14;;;;;;;1.35;0.90;;;18.70;47.50;;;;;;4997374;28;20271;-78
2023/01/12 12:47:46;;;;;;;1.08;0.80;;;18.70;47.50;;;;;;5013580;28;20197;-78
2023/01/12 12:50:16;;;;;;;0.82;0.80;;;18.70;47.70;;;;;;4997872;28;20205;-78
2023/01/12 12:52:43;;;;;;;1.17;0.82;;;18.60;47.30;;;;;;5014172;28;20208;-78
2023/01/12 12:55:11;;;;;;;1.42;0.80;;;18.60;47.30;;;;;;5013193;28;20217;-78
2023/01/12 12:57:59;;;;;;;0.88;0.70;;;18.60;47.50;;;;;;5013475;28;20687;-78
2023/01/12 13:00:35;;;;;;;1.05;0.80;;;18.70;47.40;;;;;;5013542;28;20193;-78
2023/01/12 13:03:03;;;;;;;2.35;1.10;;;18.70;47.40;;;;;;5014540;28;20554;-78
2023/01/12 13:05:42;;;;;;;1.48;0.77;;;18.70;47.30;;;;;;5029482;28;20227;-78
2023/01/12 13:08:22;;;;;;;1.45;1.05;;;18.80;47.50;;;;;;5012841;28;20204;-78
2023/01/12 13:10:53;;;;;;;1.35;0.90;;;18.70;47.20;;;;;;5013246;28;20622;-78
2023/01/12 13:13:29;;;;;;;1.30;0.88;;;18.70;47.20;;;;;;5013892;28;20283;-78
2023/01/12 13:16:42;;;;;;;0.90;0.90;;;18.70;47.40;;;;;;5013718;28;20314;-78
2023/01/12 13:19:14;;;;;;;1.38;0.88;;;18.70;47.50;;;;;;5014216;28;20188;-78
2023/01/12 13:21:56;;;;;;;0.80;0.80;;;18.70;47.40;;;;;;5014357;28;20200;-78
2023/01/12 13:24:28;;;;;;;1.35;0.90;;;18.80;47.60;;;;;;4999830;28;20240;-78
2023/01/12 13:26:59;;;;;;;0.70;0.70;;;18.80;47.40;;;;;;5014848;28;20208;-78
2023/01/12 13:29:43;;;;;;;1.23;0.90;;;18.80;47.50;;;;;;5030746;28;20212;-78
2023/01/12 13:32:34;;;;;;;1.10;0.80;;;18.70;47.40;;;;;;5014786;28;20279;-78
2023/01/12 13:35:03;;;;;;;1.40;0.90;;;18.70;47.40;;;;;;5014066;28;20223;-78
2023/01/12 13:37:44;;;;;;;0.80;0.80;;;18.70;47.80;;;;;;5030708;28;20197;-78
2023/01/12 13:40:16;;;;;;;1.13;0.90;;;18.70;47.90;;;;;;5014075;28;20271;-78